createdAt,value
2019-06-27T00:00:33.776Z,66.20
2019-06-27T00:03:01.427Z,66.90
2019-06-27T00:05:29.043Z,67.70
2019-06-27T00:07:56.668Z,68.30
2019-06-27T00:10:24.379Z,69.30
2019-06-27T00:12:51.954Z,69.60
2019-06-27T00:15:19.698Z,69.90
2019-06-27T00:17:47.277Z,70.20
2019-06-27T00:20:14.894Z,69.70
2019-06-27T00:22:42.490Z,68.90
2019-06-27T00:25:10.209Z,68.30
2019-06-27T00:27:37.802Z,69.30
2019-06-27T00:30:06.142Z,69.10
2019-06-27T00:32:33.823Z,69.60
2019-06-27T00:35:01.644Z,70.10
2019-06-27T00:37:29.186Z,70.10
2019-06-27T00:39:56.924Z,69.60
2019-06-27T00:42:24.558Z,69.30
2019-06-27T00:44:52.185Z,70.10
2019-06-27T00:47:19.819Z,69.50
2019-06-27T00:49:47.426Z,69.80
2019-06-27T00:52:15.117Z,68.80
2019-06-27T00:54:42.778Z,68.10
2019-06-27T00:57:14.451Z,68.20
2019-06-27T00:59:39.802Z,68.60
2019-06-27T01:02:07.384Z,69.40
2019-06-27T01:04:35.026Z,69.20
2019-06-27T01:07:02.667Z,69.10
2019-06-27T01:09:30.321Z,69.00
2019-06-27T01:11:57.962Z,69.10
2019-06-27T01:14:25.686Z,69.00
2019-06-27T01:16:53.298Z,68.90
2019-06-27T01:19:20.915Z,69.00
2019-06-27T01:21:49.422Z,68.70
2019-06-27T01:24:17.003Z,68.80
2019-06-27T01:26:44.619Z,69.20
2019-06-27T01:29:12.207Z,69.60
2019-06-27T01:31:39.822Z,69.60
2019-06-27T01:34:07.710Z,69.80
2019-06-27T01:36:35.350Z,70.40
2019-06-27T01:39:03.178Z,70.90
2019-06-27T01:41:30.882Z,71.30
2019-06-27T01:43:58.574Z,71.00
2019-06-27T01:46:26.182Z,70.90
2019-06-27T01:48:53.770Z,70.70
2019-06-27T01:51:21.350Z,70.90
2019-06-27T01:53:49.094Z,71.10
2019-06-27T01:56:16.706Z,71.60
2019-06-27T01:58:44.322Z,71.60
2019-06-27T02:01:11.948Z,71.30
2019-06-27T02:03:39.530Z,71.20
2019-06-27T02:06:07.200Z,71.60
2019-06-27T02:08:34.786Z,71.90
2019-06-27T02:11:02.524Z,72.10
2019-06-27T02:13:30.161Z,72.10
2019-06-27T02:15:57.903Z,71.90
2019-06-27T02:18:25.497Z,73.20
2019-06-27T02:20:53.087Z,72.70
2019-06-27T02:23:20.691Z,72.90
2019-06-27T02:25:48.297Z,73.20
2019-06-27T02:28:15.916Z,73.60
2019-06-27T02:30:43.973Z,73.50
2019-06-27T02:33:11.740Z,73.90
2019-06-27T02:35:40.707Z,74.00
2019-06-27T02:38:08.335Z,73.80
2019-06-27T02:40:36.001Z,74.00
2019-06-27T02:43:03.787Z,74.10
2019-06-27T02:45:31.550Z,74.10
2019-06-27T02:47:59.159Z,73.90
2019-06-27T02:50:26.805Z,74.00
2019-06-27T02:52:54.379Z,74.10
2019-06-27T02:55:21.996Z,74.20
2019-06-27T02:57:49.562Z,74.40
2019-06-27T03:00:17.331Z,74.70
2019-06-27T03:02:45.083Z,74.40
2019-06-27T03:05:12.840Z,74.00
2019-06-27T03:07:40.640Z,74.20
2019-06-27T03:10:08.327Z,74.20
2019-06-27T03:12:36.033Z,74.50
2019-06-27T03:15:04.123Z,74.50
2019-06-27T03:17:31.757Z,74.20
2019-06-27T03:19:59.522Z,74.50
2019-06-27T03:22:27.130Z,74.40
2019-06-27T03:24:54.736Z,74.40
2019-06-27T03:27:22.355Z,74.10
2019-06-27T03:29:49.963Z,73.70
2019-06-27T03:32:17.736Z,73.60
2019-06-27T03:34:45.380Z,73.60
2019-06-27T03:37:12.998Z,74.00
2019-06-27T03:39:40.600Z,73.40
2019-06-27T03:42:08.208Z,73.70
2019-06-27T03:44:36.013Z,73.60
2019-06-27T03:47:03.662Z,73.80
2019-06-27T03:49:31.298Z,74.10
2019-06-27T03:51:59.159Z,73.80
2019-06-27T03:54:26.799Z,73.80
2019-06-27T03:56:54.430Z,73.60
2019-06-27T03:59:22.015Z,73.30
2019-06-27T04:01:49.607Z,72.50
2019-06-27T04:04:17.207Z,71.10
2019-06-27T04:06:44.819Z,70.40
2019-06-27T04:09:12.405Z,70.80
2019-06-27T04:11:41.033Z,70.30
2019-06-27T04:14:08.803Z,70.50
2019-06-27T04:16:37.968Z,71.00
2019-06-27T04:19:06.126Z,71.40
2019-06-27T04:21:33.749Z,71.80
2019-06-27T04:24:01.352Z,71.10
2019-06-27T04:26:29.119Z,71.30
2019-06-27T04:28:56.743Z,71.30
2019-06-27T04:31:24.424Z,71.80
2019-06-27T04:33:52.046Z,71.70
2019-06-27T04:36:19.755Z,72.00
2019-06-27T04:38:47.351Z,71.60
2019-06-27T04:41:14.998Z,71.30
2019-06-27T04:43:42.686Z,71.30
2019-06-27T04:46:10.312Z,70.30
2019-06-27T04:48:38.043Z,69.80
2019-06-27T04:51:05.734Z,69.40
2019-06-27T04:53:33.419Z,69.00
2019-06-27T04:56:01.038Z,66.90
2019-06-27T04:58:28.698Z,67.00
2019-06-27T05:00:56.284Z,66.30
2019-06-27T05:03:23.982Z,66.30
2019-06-27T05:05:51.585Z,66.00
2019-06-27T05:08:19.395Z,66.40
2019-06-27T05:11:06.439Z,65.50
2019-06-27T05:13:34.102Z,65.80
2019-06-27T05:16:01.806Z,66.10
2019-06-27T05:18:29.386Z,65.80
2019-06-27T05:20:57.003Z,65.90
2019-06-27T05:23:24.586Z,66.10
2019-06-27T05:25:52.221Z,66.20
2019-06-27T05:28:19.846Z,65.50
2019-06-27T05:30:51.212Z,65.40
2019-06-27T05:33:16.919Z,66.00
2019-06-27T05:35:44.532Z,65.90
2019-06-27T05:38:12.230Z,66.00
2019-06-27T05:40:40.242Z,64.70
2019-06-27T05:43:07.782Z,64.80
2019-06-27T05:45:35.473Z,66.40
2019-06-27T05:48:03.080Z,63.30
2019-06-27T05:50:30.933Z,62.90
2019-06-27T05:52:58.578Z,63.30
2019-06-27T05:55:26.206Z,62.70
2019-06-27T05:57:53.833Z,62.40
2019-06-27T06:00:28.456Z,61.30
2019-06-27T06:02:51.092Z,62.30
2019-06-27T06:05:18.817Z,62.30
2019-06-27T06:07:46.446Z,61.10
2019-06-27T06:10:14.273Z,60.10
2019-06-27T06:12:41.933Z,61.40
2019-06-27T06:15:09.853Z,59.80
2019-06-27T06:17:37.478Z,60.10
2019-06-27T06:20:05.349Z,59.30
2019-06-27T06:22:33.061Z,59.30
2019-06-27T06:25:00.891Z,58.90
2019-06-27T06:27:28.513Z,57.70
2019-06-27T06:29:56.136Z,57.40
2019-06-27T06:32:23.936Z,57.80
2019-06-27T06:34:51.562Z,56.70
2019-06-27T06:37:19.293Z,57.20
2019-06-27T06:39:46.918Z,56.60
2019-06-27T06:42:14.509Z,55.80
2019-06-27T06:44:42.155Z,55.10
2019-06-27T06:47:09.810Z,53.00
2019-06-27T06:49:37.481Z,49.50
2019-06-27T06:52:05.090Z,50.50
2019-06-27T06:54:32.786Z,47.80
2019-06-27T06:57:00.508Z,48.80
2019-06-27T06:59:28.151Z,48.20
2019-06-27T07:01:55.762Z,46.80
2019-06-27T07:04:23.357Z,46.20
2019-06-27T07:06:50.981Z,47.40
2019-06-27T07:09:18.655Z,46.50
2019-06-27T07:11:46.244Z,46.40
2019-06-27T07:14:13.825Z,46.80
2019-06-27T07:16:41.449Z,46.80
2019-06-27T07:19:09.061Z,45.20
2019-06-27T07:21:36.670Z,44.50
2019-06-27T07:24:04.460Z,44.80
2019-06-27T07:26:32.185Z,44.90
2019-06-27T07:28:59.946Z,43.80
2019-06-27T07:31:27.534Z,41.40
2019-06-27T07:33:55.154Z,40.80
2019-06-27T07:36:22.729Z,42.50
2019-06-27T07:38:50.359Z,43.00
2019-06-27T07:41:18.066Z,43.30
2019-06-27T07:43:45.655Z,43.30
2019-06-27T07:46:24.558Z,43.00
2019-06-27T07:48:43.244Z,40.60
2019-06-27T07:51:11.348Z,41.90
2019-06-27T07:53:38.960Z,39.20
2019-06-27T07:56:06.549Z,39.80
2019-06-27T07:58:34.186Z,39.40
2019-06-27T08:01:01.842Z,39.20
2019-06-27T08:03:35.957Z,38.00
2019-06-27T08:06:03.662Z,38.40
2019-06-27T08:08:31.423Z,39.20
2019-06-27T08:10:59.047Z,39.30
2019-06-27T08:13:26.709Z,40.30
2019-06-27T08:15:54.302Z,40.50
2019-06-27T08:18:21.886Z,40.30
2019-06-27T08:20:49.494Z,39.60
2019-06-27T08:23:17.105Z,43.40
2019-06-27T08:25:44.731Z,45.40
2019-06-27T08:28:12.353Z,45.70
2019-06-27T08:30:40.011Z,46.50
2019-06-27T08:33:07.642Z,45.40
2019-06-27T08:35:35.373Z,43.20
2019-06-27T08:38:02.995Z,43.60
2019-06-27T08:40:30.689Z,42.80
2019-06-27T08:42:58.278Z,42.70
2019-06-27T08:45:25.906Z,42.20
2019-06-27T08:47:53.602Z,40.90
2019-06-27T08:50:21.460Z,40.20
2019-06-27T08:52:49.075Z,41.60
2019-06-27T08:55:16.830Z,41.00
2019-06-27T08:57:44.450Z,40.80
2019-06-27T09:00:12.278Z,41.10
2019-06-27T09:02:39.929Z,41.10
2019-06-27T09:05:07.797Z,40.20
2019-06-27T09:07:35.737Z,39.50
2019-06-27T09:10:03.918Z,39.40
2019-06-27T09:12:31.665Z,38.90
2019-06-27T09:14:59.294Z,40.10
2019-06-27T09:17:26.902Z,40.30
2019-06-27T09:19:54.546Z,40.00
2019-06-27T09:22:22.222Z,39.40
2019-06-27T09:24:49.846Z,39.70
2019-06-27T09:27:17.550Z,40.00
2019-06-27T09:29:45.099Z,40.10
2019-06-27T09:32:24.818Z,39.40
2019-06-27T09:34:42.145Z,39.10
2019-06-27T09:37:09.793Z,39.40
2019-06-27T09:39:37.481Z,39.60
2019-06-27T09:42:05.119Z,40.00
2019-06-27T09:44:32.858Z,38.40
2019-06-27T09:47:12.570Z,39.40
2019-06-27T09:49:40.182Z,39.70
2019-06-27T09:52:07.918Z,39.90
2019-06-27T09:54:35.607Z,39.30
2019-06-27T09:57:03.234Z,40.50
2019-06-27T09:59:30.901Z,40.10
2019-06-27T10:01:58.514Z,39.60
2019-06-27T10:04:26.106Z,38.90
2019-06-27T10:06:53.766Z,38.80
2019-06-27T10:09:21.370Z,39.70
2019-06-27T10:11:49.008Z,40.30
2019-06-27T10:14:16.589Z,41.30
2019-06-27T10:16:44.193Z,39.30
2019-06-27T10:19:11.873Z,40.00
2019-06-27T10:21:39.483Z,39.20
2019-06-27T10:24:07.249Z,39.40
2019-06-27T10:26:34.978Z,38.50
2019-06-27T10:29:02.787Z,38.70
2019-06-27T10:31:30.411Z,39.20
2019-06-27T10:33:58.034Z,39.80
2019-06-27T10:36:25.651Z,38.90
2019-06-27T10:38:53.251Z,38.10
2019-06-27T10:41:20.858Z,36.50
2019-06-27T10:43:48.469Z,37.50
2019-06-27T10:46:16.113Z,38.00
2019-06-27T10:48:43.797Z,36.20
2019-06-27T10:51:11.423Z,36.60
2019-06-27T10:53:39.039Z,38.10
2019-06-27T10:56:06.681Z,37.90
2019-06-27T10:58:34.393Z,37.30
2019-06-27T11:01:02.098Z,37.70
2019-06-27T11:03:29.717Z,38.90
2019-06-27T11:05:57.413Z,37.50
2019-06-27T11:08:25.034Z,37.60
2019-06-27T11:10:52.637Z,37.30
2019-06-27T11:13:20.268Z,36.90
2019-06-27T11:15:49.411Z,37.80
2019-06-27T11:18:21.150Z,36.10
2019-06-27T11:20:47.475Z,36.20
2019-06-27T11:23:15.083Z,37.00
2019-06-27T11:25:42.685Z,38.40
2019-06-27T11:28:10.425Z,39.10
2019-06-27T11:30:38.073Z,39.90
2019-06-27T11:33:05.750Z,39.10
2019-06-27T11:35:33.362Z,38.20
2019-06-27T11:38:01.136Z,37.20
2019-06-27T11:40:28.794Z,37.00
2019-06-27T11:42:56.390Z,36.60
2019-06-27T11:45:24.222Z,37.40
2019-06-27T11:47:51.856Z,38.60
2019-06-27T11:50:19.605Z,37.70
2019-06-27T11:52:47.650Z,38.20
2019-06-27T11:55:15.473Z,39.00
2019-06-27T11:57:43.089Z,37.90
2019-06-27T12:00:10.818Z,38.10
2019-06-27T12:02:38.473Z,37.20
2019-06-27T12:05:06.350Z,36.50
2019-06-27T12:07:34.009Z,38.60
2019-06-27T12:10:01.800Z,36.00
2019-06-27T12:12:29.374Z,36.10
2019-06-27T12:14:56.980Z,36.60
2019-06-27T12:17:24.595Z,36.60
2019-06-27T12:19:52.223Z,37.40
2019-06-27T12:22:19.939Z,36.90
2019-06-27T12:24:47.571Z,37.00
2019-06-27T12:27:15.190Z,36.70
2019-06-27T12:29:42.895Z,35.10
2019-06-27T12:32:10.529Z,37.30
2019-06-27T12:34:38.149Z,37.50
2019-06-27T12:37:05.762Z,38.40
2019-06-27T12:39:33.497Z,38.90
2019-06-27T12:42:01.107Z,38.90
2019-06-27T12:44:29.257Z,38.80
2019-06-27T12:46:56.830Z,39.40
2019-06-27T12:49:44.536Z,40.40
2019-06-27T12:51:53.881Z,39.10
2019-06-27T12:54:21.501Z,38.90
2019-06-27T12:56:49.137Z,39.20
2019-06-27T12:59:16.765Z,39.30
2019-06-27T13:01:44.410Z,40.30
2019-06-27T13:04:22.852Z,39.60
2019-06-27T13:06:41.426Z,40.10
2019-06-27T13:09:09.057Z,40.50
2019-06-27T13:11:36.785Z,39.80
2019-06-27T13:14:04.500Z,40.60
2019-06-27T13:16:32.141Z,38.70
2019-06-27T13:18:59.734Z,39.20
2019-06-27T13:21:27.335Z,38.40
2019-06-27T13:23:54.939Z,40.20
2019-06-27T13:26:22.554Z,39.40
2019-06-27T13:28:50.195Z,39.60
2019-06-27T13:31:17.813Z,39.80
2019-06-27T13:33:45.422Z,40.50
2019-06-27T13:36:13.038Z,39.70
2019-06-27T13:38:40.691Z,41.70
2019-06-27T13:41:08.401Z,42.10
2019-06-27T13:43:36.057Z,41.50
2019-06-27T13:46:03.777Z,42.10
2019-06-27T13:48:31.365Z,42.10
2019-06-27T13:50:58.974Z,42.40
2019-06-27T13:53:26.594Z,42.70
2019-06-27T13:55:54.218Z,41.70
2019-06-27T13:58:21.872Z,42.90
2019-06-27T14:00:49.781Z,42.90
2019-06-27T14:03:17.719Z,40.70
2019-06-27T14:05:45.256Z,40.70
2019-06-27T14:08:12.863Z,41.80
2019-06-27T14:10:40.847Z,42.90
2019-06-27T14:13:08.474Z,42.70
2019-06-27T14:15:36.214Z,42.50
2019-06-27T14:18:04.010Z,43.30
2019-06-27T14:20:31.628Z,41.70
2019-06-27T14:22:59.403Z,42.00
2019-06-27T14:25:26.965Z,44.50
2019-06-27T14:27:54.573Z,44.40
2019-06-27T14:30:22.385Z,43.70
2019-06-27T14:32:53.116Z,42.40
2019-06-27T14:35:20.522Z,43.40
2019-06-27T14:37:48.128Z,42.60
2019-06-27T14:40:16.050Z,43.20
2019-06-27T14:42:43.678Z,42.40
2019-06-27T14:45:11.424Z,42.40
2019-06-27T14:47:39.045Z,42.60
2019-06-27T14:50:07.055Z,42.50
2019-06-27T14:52:35.068Z,43.90
2019-06-27T14:55:03.473Z,43.30
2019-06-27T14:57:31.089Z,45.10
2019-06-27T14:59:58.753Z,46.40
2019-06-27T15:02:26.369Z,46.40
2019-06-27T15:04:54.041Z,46.40
2019-06-27T15:07:21.658Z,45.40
2019-06-27T15:09:49.278Z,45.00
2019-06-27T15:12:16.926Z,45.40
2019-06-27T15:14:44.542Z,46.20
2019-06-27T15:17:12.162Z,45.30
2019-06-27T15:19:39.823Z,44.50
2019-06-27T15:22:07.773Z,44.50
2019-06-27T15:24:35.498Z,45.20
2019-06-27T15:27:03.400Z,45.80
2019-06-27T15:29:31.006Z,44.40
2019-06-27T15:31:58.613Z,45.00
2019-06-27T15:34:26.270Z,44.00
2019-06-27T15:36:53.909Z,46.50
2019-06-27T15:39:21.526Z,46.10
2019-06-27T15:41:49.193Z,45.70
2019-06-27T15:44:20.498Z,45.30
2019-06-27T15:46:46.198Z,45.00
2019-06-27T15:49:13.834Z,45.00
2019-06-27T15:51:41.481Z,44.70
2019-06-27T15:54:09.586Z,44.90
2019-06-27T15:56:37.265Z,45.00
2019-06-27T15:59:04.962Z,46.30
2019-06-27T16:01:32.572Z,45.90
2019-06-27T16:04:00.208Z,46.30
2019-06-27T16:06:27.830Z,45.50
2019-06-27T16:08:55.441Z,46.80
2019-06-27T16:11:23.022Z,46.70
2019-06-27T16:13:50.665Z,47.30
2019-06-27T16:16:18.331Z,47.70
2019-06-27T16:18:46.005Z,47.60
2019-06-27T16:21:13.658Z,47.40
2019-06-27T16:23:41.286Z,48.00
2019-06-27T16:26:08.953Z,46.80
2019-06-27T16:28:36.672Z,47.30
2019-06-27T16:31:04.484Z,47.30
2019-06-27T16:33:32.065Z,47.00
2019-06-27T16:35:59.690Z,46.80
2019-06-27T16:38:27.321Z,47.50
2019-06-27T16:40:54.928Z,48.00
2019-06-27T16:43:22.564Z,47.60
2019-06-27T16:45:50.850Z,48.00
2019-06-27T16:48:18.536Z,48.80
2019-06-27T16:50:46.226Z,48.80
2019-06-27T16:53:13.879Z,47.80
2019-06-27T16:55:41.477Z,47.40
2019-06-27T16:58:09.070Z,48.20
2019-06-27T17:00:36.816Z,47.60
2019-06-27T17:03:04.597Z,47.60
2019-06-27T17:05:32.258Z,47.50
2019-06-27T17:07:59.910Z,47.90
2019-06-27T17:10:27.564Z,47.80
2019-06-27T17:12:55.209Z,47.60
2019-06-27T17:15:22.830Z,47.90
2019-06-27T17:17:50.421Z,48.10
2019-06-27T17:20:18.153Z,50.90
2019-06-27T17:22:45.743Z,51.20
2019-06-27T17:25:13.460Z,51.00
2019-06-27T17:27:41.069Z,52.00
2019-06-27T17:30:09.853Z,50.40
2019-06-27T17:32:37.450Z,50.80
2019-06-27T17:35:05.280Z,50.80
2019-06-27T17:37:33.056Z,51.10
2019-06-27T17:40:00.917Z,51.70
2019-06-27T17:42:28.603Z,51.60
2019-06-27T17:44:56.450Z,52.00
2019-06-27T17:47:24.127Z,52.30
2019-06-27T17:49:52.073Z,52.80
2019-06-27T17:52:19.882Z,53.10
2019-06-27T17:54:47.502Z,54.00
2019-06-27T17:57:15.219Z,53.90
2019-06-27T17:59:42.842Z,55.00
2019-06-27T18:02:10.504Z,55.50
2019-06-27T18:04:38.126Z,55.90
2019-06-27T18:07:14.245Z,56.30
2019-06-27T18:09:35.303Z,56.50
2019-06-27T18:12:02.924Z,56.80
2019-06-27T18:14:30.537Z,57.60
2019-06-27T18:16:58.290Z,57.10
2019-06-27T18:19:25.886Z,56.90
2019-06-27T18:21:53.817Z,56.90
2019-06-27T18:24:21.418Z,57.30
2019-06-27T18:26:49.085Z,56.60
2019-06-27T18:29:16.773Z,56.20
2019-06-27T18:31:44.454Z,56.30
2019-06-27T18:34:12.198Z,56.40
2019-06-27T18:36:39.851Z,56.70
2019-06-27T18:39:07.449Z,57.00
2019-06-27T18:41:35.258Z,56.90
2019-06-27T18:44:02.915Z,57.00
2019-06-27T18:46:30.574Z,57.30
2019-06-27T18:48:58.170Z,57.40
2019-06-27T18:51:25.865Z,57.70
2019-06-27T18:53:53.574Z,57.70
2019-06-27T18:56:21.294Z,57.80
2019-06-27T18:58:48.913Z,57.90
2019-06-27T19:01:16.558Z,58.30
2019-06-27T19:03:46.015Z,58.40
2019-06-27T19:06:13.587Z,58.50
2019-06-27T19:08:41.227Z,58.40
2019-06-27T19:11:08.957Z,58.40
2019-06-27T19:13:37.092Z,58.50
2019-06-27T19:16:04.793Z,58.60
2019-06-27T19:18:47.064Z,58.60
2019-06-27T19:21:20.610Z,58.60
2019-06-27T19:23:53.940Z,58.80
2019-06-27T19:26:21.581Z,58.80
2019-06-27T19:28:49.191Z,58.80
2019-06-27T19:31:16.891Z,58.10
2019-06-27T19:33:44.608Z,58.10
2019-06-27T19:36:12.340Z,58.90
2019-06-27T19:38:40.039Z,58.50
2019-06-27T19:41:07.836Z,58.70
2019-06-27T19:43:35.430Z,58.90
2019-06-27T19:46:03.026Z,59.10
2019-06-27T19:48:30.734Z,59.10
2019-06-27T19:50:58.379Z,59.20
2019-06-27T19:53:26.096Z,59.10
2019-06-27T19:55:53.703Z,59.20
2019-06-27T19:58:21.291Z,59.40
2019-06-27T20:00:48.897Z,59.60
2019-06-27T20:03:16.556Z,59.70
2019-06-27T20:05:44.209Z,60.10
2019-06-27T20:08:19.294Z,60.10
2019-06-27T20:10:41.594Z,60.10
2019-06-27T20:13:09.326Z,60.30
2019-06-27T20:15:37.007Z,60.30
2019-06-27T20:18:04.631Z,60.30
2019-06-27T20:20:32.236Z,60.30
2019-06-27T20:22:59.969Z,60.20
2019-06-27T20:25:27.591Z,60.90
2019-06-27T20:27:55.401Z,61.60
2019-06-27T20:30:23.017Z,61.80
2019-06-27T20:32:50.645Z,61.80
2019-06-27T20:35:18.453Z,62.20
2019-06-27T20:37:46.149Z,62.20
2019-06-27T20:40:14.030Z,61.80
2019-06-27T20:42:41.706Z,62.10
2019-06-27T20:45:09.755Z,62.40
2019-06-27T20:47:37.550Z,62.70
2019-06-27T20:50:05.405Z,62.80
2019-06-27T20:52:33.070Z,63.10
2019-06-27T20:55:00.694Z,62.90
2019-06-27T20:57:28.305Z,63.20
2019-06-27T20:59:55.905Z,64.20
2019-06-27T21:02:23.541Z,63.50
2019-06-27T21:04:51.125Z,63.70
2019-06-27T21:07:18.817Z,63.80
2019-06-27T21:09:46.454Z,63.20
2019-06-27T21:12:14.061Z,62.70
2019-06-27T21:14:41.780Z,63.60
2019-06-27T21:17:09.393Z,63.90
2019-06-27T21:19:37.283Z,62.60
2019-06-27T21:22:04.889Z,62.80
2019-06-27T21:24:32.485Z,62.40
2019-06-27T21:27:00.109Z,62.80
2019-06-27T21:29:27.694Z,63.00
2019-06-27T21:31:55.278Z,62.90
2019-06-27T21:34:23.138Z,63.00
2019-06-27T21:36:50.738Z,64.00
2019-06-27T21:39:18.806Z,62.90
2019-06-27T21:41:46.417Z,62.70
2019-06-27T21:44:14.040Z,63.30
2019-06-27T21:46:41.978Z,63.10
2019-06-27T21:49:11.478Z,63.10
2019-06-27T21:51:39.061Z,63.10
2019-06-27T21:54:07.051Z,63.50
2019-06-27T21:56:34.653Z,63.50
2019-06-27T21:59:02.281Z,63.20
2019-06-27T22:01:29.917Z,63.40
2019-06-27T22:03:57.517Z,63.70
2019-06-27T22:06:25.102Z,64.10
2019-06-27T22:08:52.729Z,64.50
2019-06-27T22:11:20.381Z,63.80
2019-06-27T22:13:48.017Z,63.50
2019-06-27T22:16:15.610Z,63.60
2019-06-27T22:18:43.335Z,64.10
2019-06-27T22:21:10.945Z,64.00
2019-06-27T22:23:38.629Z,64.70
2019-06-27T22:26:06.237Z,64.40
2019-06-27T22:28:33.814Z,64.20
2019-06-27T22:31:01.449Z,63.60
2019-06-27T22:33:29.035Z,63.90
2019-06-27T22:35:56.667Z,63.70
2019-06-27T22:38:42.451Z,63.70
2019-06-27T22:41:28.172Z,64.00
2019-06-27T22:44:14.152Z,63.80
2019-06-27T22:47:00.049Z,64.60
2019-06-27T22:49:27.097Z,64.70
2019-06-27T22:52:23.040Z,64.70
2019-06-27T22:54:53.376Z,65.50
2019-06-27T22:57:20.990Z,67.00
2019-06-27T22:59:48.613Z,67.20
2019-06-27T23:02:20.506Z,67.60
2019-06-27T23:04:48.119Z,67.90
2019-06-27T23:07:16.260Z,68.60
2019-06-27T23:09:56.527Z,67.70
2019-06-27T23:12:13.409Z,68.10
2019-06-27T23:14:41.095Z,68.00
2019-06-27T23:17:08.770Z,68.50
2019-06-27T23:19:36.533Z,68.10
2019-06-27T23:22:04.249Z,68.20
2019-06-27T23:24:31.869Z,68.00
2019-06-27T23:26:59.441Z,68.80
2019-06-27T23:29:27.033Z,69.20
2019-06-27T23:31:54.606Z,69.70
2019-06-27T23:34:22.174Z,69.60
2019-06-27T23:36:49.760Z,70.20
2019-06-27T23:39:17.385Z,70.30
2019-06-27T23:41:44.994Z,71.00
2019-06-27T23:44:12.641Z,71.80
2019-06-27T23:46:41.592Z,72.20
2019-06-27T23:49:09.475Z,72.50
2019-06-27T23:51:37.153Z,72.50
2019-06-27T23:54:05.077Z,72.10
2019-06-27T23:56:32.653Z,72.60
2019-06-27T23:59:00.297Z,73.00
